Time;durP1;ratioP1;P1;durP2;ratioP2;P2;SDS_P1;SDS_P2;PMS_P1;PMS_P2;Temp;Humidity;BMP_temperature;BMP_pressure;BME280_temperature;BME280_humidity;BME280_pressure;Samples;Min_cycle;Max_cycle;Signal;HPM_P1;HPM_P2
2022/07/25 00:02:19;;;;;;;2.70;2.50;;;13.40;60.40;;;;;;5084398;28;20609;-45
2022/07/25 00:04:50;;;;;;;3.22;2.80;;;13.40;60.40;;;;;;5070390;28;20201;-44
2022/07/25 00:07:21;;;;;;;3.28;2.97;;;13.40;60.30;;;;;;5071550;28;20186;-42
2022/07/25 00:09:51;;;;;;;4.22;2.85;;;13.40;60.50;;;;;;5069274;28;20193;-43
2022/07/25 00:12:23;;;;;;;2.92;2.40;;;13.40;60.50;;;;;;5071057;28;20333;-38
2022/07/25 00:14:55;;;;;;;2.80;2.40;;;13.40;60.50;;;;;;5070641;28;20194;-39
2022/07/25 00:17:26;;;;;;;2.97;2.67;;;13.40;60.50;;;;;;5070725;28;20191;-50
2022/07/25 00:19:57;;;;;;;4.05;2.65;;;13.40;60.40;;;;;;5070479;28;20199;-40
2022/07/25 00:22:27;;;;;;;3.20;2.90;;;13.50;60.50;;;;;;5071187;28;20214;-39
2022/07/25 00:24:58;;;;;;;3.67;2.63;;;13.50;60.40;;;;;;5070498;28;20195;-39
2022/07/25 00:27:29;;;;;;;3.50;2.70;;;13.50;60.40;;;;;;5070956;28;20194;-47
2022/07/25 00:30:01;;;;;;;3.75;3.35;;;13.50;60.50;;;;;;5070381;28;20199;-46
2022/07/25 00:32:32;;;;;;;4.10;2.92;;;13.50;60.50;;;;;;5071260;28;20701;-39
2022/07/25 00:35:03;;;;;;;3.45;3.13;;;13.50;60.50;;;;;;5070718;28;20195;-42
2022/07/25 00:37:34;;;;;;;3.03;2.72;;;13.60;60.70;;;;;;5070650;28;20191;-50
2022/07/25 00:40:04;;;;;;;3.40;2.90;;;13.50;60.50;;;;;;5070213;28;20681;-45
2022/07/25 00:42:35;;;;;;;4.15;3.10;;;13.60;60.70;;;;;;5070034;28;20214;-38
2022/07/25 00:45:08;;;;;;;3.40;3.10;;;13.60;60.70;;;;;;5069652;28;20689;-41
2022/07/25 00:47:39;;;;;;;3.58;3.20;;;13.60;60.60;;;;;;5070084;28;20206;-39
2022/07/25 00:50:10;;;;;;;4.10;3.60;;;13.60;60.60;;;;;;5071685;28;20639;-39
2022/07/25 00:52:44;;;;;;;3.55;3.20;;;13.60;60.60;;;;;;5069769;28;20222;-43
2022/07/25 00:55:15;;;;;;;4.63;3.53;;;13.60;60.60;;;;;;5070470;28;20195;-41
2022/07/25 00:57:46;;;;;;;3.78;3.25;;;13.60;60.50;;;;;;5070237;28;20213;-39
2022/07/25 01:00:20;;;;;;;3.83;3.45;;;13.60;60.40;;;;;;5071028;28;20203;-40
2022/07/25 01:02:50;;;;;;;3.50;3.20;;;13.70;60.50;;;;;;5064260;28;20227;-38
2022/07/25 01:05:21;;;;;;;4.03;3.42;;;13.60;60.40;;;;;;5070156;28;20206;-43
2022/07/25 01:07:53;;;;;;;3.83;3.42;;;13.70;60.50;;;;;;5070929;28;20194;-38
2022/07/25 01:10:23;;;;;;;4.07;3.42;;;13.70;60.50;;;;;;5070177;28;20191;-42
2022/07/25 01:12:56;;;;;;;5.80;3.80;;;13.70;60.60;;;;;;5070520;28;20211;-57
2022/07/25 01:15:29;;;;;;;4.05;3.50;;;13.70;60.70;;;;;;5069403;28;20202;-49
2022/07/25 01:17:59;;;;;;;4.38;3.67;;;13.70;60.80;;;;;;5070404;28;20195;-53
2022/07/25 01:20:34;;;;;;;4.57;3.95;;;13.70;60.90;;;;;;5069864;28;20194;-48
2022/07/25 01:23:04;;;;;;;5.30;4.18;;;13.70;60.90;;;;;;5069419;28;20800;-46
2022/07/25 01:25:35;;;;;;;4.50;3.67;;;13.70;60.90;;;;;;5069932;28;20209;-43
2022/07/25 01:28:07;;;;;;;4.57;3.70;;;13.70;61.10;;;;;;5069919;28;20195;-50
2022/07/25 01:30:37;;;;;;;4.43;3.83;;;13.70;60.90;;;;;;5070526;28;20195;-53
2022/07/25 01:33:08;;;;;;;4.68;3.90;;;13.70;60.70;;;;;;5070255;28;20211;-51
2022/07/25 01:35:41;;;;;;;4.88;3.83;;;13.70;60.70;;;;;;5070006;28;20218;-48
2022/07/25 01:38:11;;;;;;;4.72;4.03;;;13.70;60.60;;;;;;5069980;28;20191;-41
2022/07/25 01:40:43;;;;;;;4.28;3.88;;;13.70;60.70;;;;;;5070105;28;20206;-41
2022/07/25 01:43:14;;;;;;;4.38;3.97;;;13.70;60.60;;;;;;5069698;28;20297;-50
2022/07/25 01:45:44;;;;;;;4.07;3.47;;;13.70;60.80;;;;;;5070420;28;20214;-42
2022/07/25 01:48:19;;;;;;;4.78;3.95;;;13.80;60.90;;;;;;5069700;28;20202;-49
2022/07/25 01:50:52;;;;;;;4.22;3.83;;;13.70;61.00;;;;;;5070169;28;20194;-38
2022/07/25 01:53:22;;;;;;;4.75;4.13;;;13.70;61.00;;;;;;5069342;28;20223;-41
2022/07/25 01:55:53;;;;;;;5.97;4.05;;;13.80;61.00;;;;;;5069860;28;20605;-53
2022/07/25 01:58:24;;;;;;;4.90;3.85;;;13.80;61.00;;;;;;5055519;28;20219;-42
2022/07/25 02:00:54;;;;;;;6.10;4.45;;;13.80;61.00;;;;;;5051809;28;20196;-56
2022/07/25 02:03:31;;;;;;;4.75;3.55;;;13.80;61.00;;;;;;5068992;28;20215;-59
2022/07/25 02:06:06;;;;;;;5.13;4.07;;;13.80;60.90;;;;;;5073119;28;20195;-39
2022/07/25 02:08:37;;;;;;;4.97;3.85;;;13.80;60.80;;;;;;5073573;28;20205;-38
2022/07/25 02:11:07;;;;;;;4.03;3.45;;;13.80;60.80;;;;;;5073133;28;20194;-41
2022/07/25 02:13:38;;;;;;;5.22;4.47;;;13.80;60.80;;;;;;5072455;28;20214;-39
2022/07/25 02:16:09;;;;;;;5.03;4.10;;;13.80;60.80;;;;;;5073229;28;20245;-46
2022/07/25 02:18:40;;;;;;;4.45;3.97;;;13.80;60.80;;;;;;5072677;28;20195;-42
2022/07/25 02:21:12;;;;;;;4.50;4.10;;;13.80;60.90;;;;;;5073620;28;20194;-48
2022/07/25 02:23:43;;;;;;;4.10;3.70;;;13.80;61.10;;;;;;5073355;28;20207;-49
2022/07/25 02:26:15;;;;;;;5.70;4.10;;;13.80;61.10;;;;;;5072747;28;20199;-41
2022/07/25 02:28:45;;;;;;;5.40;4.22;;;13.80;61.10;;;;;;5072838;28;20199;-57
2022/07/25 02:31:16;;;;;;;5.32;4.38;;;13.80;61.10;;;;;;5072548;28;20195;-60
2022/07/25 02:33:47;;;;;;;5.13;4.38;;;13.80;61.10;;;;;;5072845;28;20210;-57
2022/07/25 02:36:20;;;;;;;4.88;4.30;;;13.80;61.10;;;;;;5073031;28;20215;-56
2022/07/25 02:38:50;;;;;;;4.68;4.20;;;13.80;61.10;;;;;;5072169;28;20194;-40
2022/07/25 02:41:21;;;;;;;4.80;4.07;;;13.80;61.00;;;;;;5072687;28;20374;-48
2022/07/25 02:43:52;;;;;;;4.93;4.40;;;13.80;61.00;;;;;;5072546;28;20666;-47
2022/07/25 02:46:23;;;;;;;4.32;3.92;;;13.80;60.90;;;;;;5073136;28;20221;-39
2022/07/25 02:48:53;;;;;;;4.78;4.22;;;13.80;60.90;;;;;;5072217;28;20277;-40
2022/07/25 02:51:26;;;;;;;4.65;4.25;;;13.90;61.00;;;;;;5071834;28;20199;-44
2022/07/25 02:53:57;;;;;;;6.03;4.30;;;13.80;60.90;;;;;;5072365;28;20198;-50
2022/07/25 02:56:27;;;;;;;5.05;4.25;;;13.90;61.20;;;;;;5071287;28;20206;-39
2022/07/25 02:58:58;;;;;;;4.20;3.80;;;13.90;61.30;;;;;;5077067;28;20190;-39
2022/07/25 03:01:29;;;;;;;4.57;4.13;;;13.90;61.40;;;;;;5071773;28;20201;-42
2022/07/25 03:03:59;;;;;;;5.18;4.20;;;13.90;61.40;;;;;;5067457;28;20658;-47
2022/07/25 03:06:32;;;;;;;5.03;4.40;;;13.90;61.40;;;;;;5070716;28;20217;-45
2022/07/25 03:09:03;;;;;;;5.18;4.63;;;13.80;61.30;;;;;;5071136;28;20191;-51
2022/07/25 03:11:34;;;;;;;4.55;4.10;;;13.90;61.40;;;;;;5072020;28;20191;-46
2022/07/25 03:14:05;;;;;;;6.18;4.50;;;13.90;61.30;;;;;;5071679;28;20272;-42
2022/07/25 03:16:35;;;;;;;4.43;4.03;;;13.90;61.30;;;;;;5072100;28;20227;-38
2022/07/25 03:19:09;;;;;;;4.55;4.05;;;13.80;61.10;;;;;;5071618;28;20191;-39
2022/07/25 03:21:41;;;;;;;4.13;3.75;;;13.90;61.20;;;;;;5071809;28;20201;-44
2022/07/25 03:24:12;;;;;;;4.90;4.28;;;13.90;61.10;;;;;;5072123;28;20550;-42
2022/07/25 03:26:43;;;;;;;5.00;4.40;;;13.90;61.10;;;;;;5072002;28;20206;-39
2022/07/25 03:29:13;;;;;;;4.88;4.38;;;13.90;61.10;;;;;;5070821;28;20643;-38
2022/07/25 03:31:44;;;;;;;5.07;4.55;;;13.90;61.10;;;;;;5071323;28;20206;-41
2022/07/25 03:34:15;;;;;;;4.78;4.18;;;13.90;61.30;;;;;;5071748;28;20194;-39
2022/07/25 03:36:47;;;;;;;4.85;4.40;;;13.90;61.30;;;;;;5071596;28;20222;-39
2022/07/25 03:39:19;;;;;;;4.55;4.13;;;13.90;61.20;;;;;;5071269;28;20223;-40
2022/07/25 03:41:50;;;;;;;5.32;4.28;;;13.90;61.20;;;;;;5071245;28;20222;-39
2022/07/25 03:44:20;;;;;;;4.70;4.20;;;13.90;61.20;;;;;;5072286;28;20221;-39
2022/07/25 03:46:51;;;;;;;5.00;4.38;;;13.90;61.30;;;;;;5071615;28;20811;-40
2022/07/25 03:49:22;;;;;;;4.40;4.00;;;13.90;61.30;;;;;;5072158;28;20187;-40
2022/07/25 03:51:55;;;;;;;5.13;4.63;;;13.90;61.20;;;;;;5071117;28;20230;-39
2022/07/25 03:54:25;;;;;;;5.97;5.10;;;13.90;61.20;;;;;;5071027;28;20191;-43
2022/07/25 03:56:56;;;;;;;6.22;5.45;;;13.90;61.10;;;;;;5070848;28;20225;-39
2022/07/25 03:59:27;;;;;;;6.07;4.82;;;13.90;61.10;;;;;;5086594;28;20186;-41
2022/07/25 04:01:58;;;;;;;5.90;4.65;;;13.90;61.20;;;;;;5087290;28;20222;-39
2022/07/25 04:04:29;;;;;;;5.30;4.72;;;13.90;61.30;;;;;;5070980;28;20587;-40
2022/07/25 04:07:01;;;;;;;6.18;5.07;;;13.90;61.20;;;;;;5071319;28;20210;-39
2022/07/25 04:09:32;;;;;;;7.15;5.43;;;13.90;61.30;;;;;;5070813;28;20217;-38
2022/07/25 04:12:03;;;;;;;5.25;4.70;;;13.90;61.30;;;;;;5071025;28;20219;-39
2022/07/25 04:14:34;;;;;;;6.75;5.25;;;13.90;61.30;;;;;;5071420;28;20209;-40
2022/07/25 04:17:05;;;;;;;5.90;5.28;;;13.90;61.30;;;;;;5070534;28;20214;-40
2022/07/25 04:19:36;;;;;;;7.07;5.80;;;13.90;61.40;;;;;;5071613;28;20203;-38
2022/07/25 04:22:08;;;;;;;8.00;6.68;;;13.90;61.40;;;;;;5070407;28;20223;-41
2022/07/25 04:24:39;;;;;;;7.00;6.30;;;13.90;61.30;;;;;;5051551;28;20200;-38
2022/07/25 04:27:10;;;;;;;7.93;6.70;;;13.90;61.30;;;;;;5051431;28;20199;-38
2022/07/25 04:29:40;;;;;;;9.10;7.30;;;13.90;61.30;;;;;;5067411;28;20199;-40
2022/07/25 04:32:12;;;;;;;9.77;7.20;;;13.90;61.30;;;;;;5071305;28;20559;-41
2022/07/25 04:34:43;;;;;;;9.73;7.35;;;13.90;61.30;;;;;;5071441;28;20195;-45
2022/07/25 04:37:16;;;;;;;7.78;6.93;;;13.90;61.20;;;;;;5070676;28;20264;-38
2022/07/25 04:39:46;;;;;;;8.18;6.38;;;13.90;61.30;;;;;;5070374;28;20203;-39
2022/07/25 04:42:17;;;;;;;8.82;6.97;;;13.90;61.30;;;;;;5065440;28;20218;-45
2022/07/25 04:44:48;;;;;;;9.70;6.38;;;13.90;61.40;;;;;;5069466;28;20551;-38
2022/07/25 04:47:18;;;;;;;7.22;5.72;;;13.90;61.40;;;;;;5062490;28;20210;-57
2022/07/25 04:49:49;;;;;;;7.85;6.85;;;13.90;61.40;;;;;;5050324;28;20202;-39
2022/07/25 04:52:22;;;;;;;9.25;6.88;;;13.90;61.40;;;;;;5069615;28;20222;-39
2022/07/25 04:54:52;;;;;;;8.88;6.47;;;13.80;61.30;;;;;;5070305;28;20187;-39
2022/07/25 04:57:23;;;;;;;7.97;6.43;;;13.80;61.30;;;;;;5071100;28;20678;-57
2022/07/25 04:59:54;;;;;;;7.22;5.90;;;13.80;61.20;;;;;;5059430;28;20202;-54
2022/07/25 05:02:24;;;;;;;9.90;6.30;;;13.80;61.20;;;;;;5068017;28;20219;-55
2022/07/25 05:04:55;;;;;;;7.10;5.90;;;13.90;61.30;;;;;;5069692;28;20658;-58
2022/07/25 05:07:28;;;;;;;7.88;6.07;;;13.80;61.10;;;;;;5070204;28;20564;-54
2022/07/25 05:09:58;;;;;;;7.95;5.60;;;13.90;61.20;;;;;;5070236;28;20205;-50
2022/07/25 05:12:29;;;;;;;6.85;5.57;;;13.80;61.10;;;;;;5070568;28;20214;-51
2022/07/25 05:15:00;;;;;;;7.25;6.20;;;13.90;61.30;;;;;;5069516;28;20194;-58
2022/07/25 05:17:31;;;;;;;6.75;5.95;;;13.80;61.20;;;;;;5070011;28;20237;-56
2022/07/25 05:20:01;;;;;;;6.88;5.88;;;13.80;61.30;;;;;;5070322;28;20205;-61
2022/07/25 05:22:34;;;;;;;6.70;5.68;;;13.80;61.30;;;;;;5070160;28;20219;-59
2022/07/25 05:25:07;;;;;;;7.30;5.90;;;13.80;61.40;;;;;;5070430;28;20222;-44
2022/07/25 05:27:38;;;;;;;7.35;5.88;;;13.80;61.40;;;;;;5069941;28;20187;-38
2022/07/25 05:30:11;;;;;;;7.40;6.35;;;13.80;61.40;;;;;;5070203;28;20646;-41
2022/07/25 05:32:42;;;;;;;7.70;6.43;;;13.80;61.40;;;;;;5069765;28;20207;-38
2022/07/25 05:35:13;;;;;;;7.70;6.30;;;13.80;61.30;;;;;;5070912;28;20199;-38
2022/07/25 05:37:46;;;;;;;6.93;6.22;;;13.80;61.30;;;;;;5072269;28;20219;-38
2022/07/25 05:40:18;;;;;;;7.38;6.65;;;13.80;61.30;;;;;;5073374;28;20650;-42
2022/07/25 05:42:48;;;;;;;7.78;6.93;;;13.80;61.20;;;;;;5074351;28;20293;-39
2022/07/25 05:45:19;;;;;;;7.30;6.60;;;13.80;61.20;;;;;;5073706;28;20203;-41
2022/07/25 05:47:50;;;;;;;7.93;7.07;;;13.80;61.20;;;;;;5073417;28;20203;-38
2022/07/25 05:50:20;;;;;;;7.53;6.82;;;13.80;61.30;;;;;;5073835;28;20784;-50
2022/07/25 05:52:53;;;;;;;8.82;7.60;;;13.80;61.30;;;;;;5073667;28;20222;-49
2022/07/25 05:55:24;;;;;;;8.70;7.80;;;13.80;61.40;;;;;;5074005;28;20201;-56
2022/07/25 05:57:54;;;;;;;8.25;7.45;;;13.80;61.40;;;;;;5092995;28;20222;-40
2022/07/25 06:00:25;;;;;;;8.93;8.02;;;13.80;61.50;;;;;;5093840;28;20190;-53
2022/07/25 06:02:59;;;;;;;8.75;7.78;;;13.80;61.50;;;;;;5071741;28;20218;-38
2022/07/25 06:05:29;;;;;;;8.63;7.72;;;13.80;61.50;;;;;;5072939;28;20528;-38
2022/07/25 06:08:02;;;;;;;8.50;7.60;;;13.70;61.50;;;;;;5072695;28;20190;-39
2022/07/25 06:10:33;;;;;;;8.43;7.63;;;13.70;61.50;;;;;;5073046;28;20191;-39
2022/07/25 06:13:03;;;;;;;8.18;7.38;;;13.80;61.50;;;;;;5091910;28;20703;-38
2022/07/25 06:15:34;;;;;;;8.20;7.40;;;13.80;61.40;;;;;;5092904;28;20198;-39
2022/07/25 06:18:05;;;;;;;7.95;7.18;;;13.80;61.40;;;;;;5092902;28;20693;-38
2022/07/25 06:20:35;;;;;;;8.70;7.80;;;13.80;61.40;;;;;;5079423;28;20187;-38
2022/07/25 06:23:08;;;;;;;8.18;7.38;;;13.80;61.50;;;;;;5072561;28;20218;-39
2022/07/25 06:25:39;;;;;;;8.13;7.18;;;13.80;61.40;;;;;;5072572;28;20203;-47
2022/07/25 06:28:09;;;;;;;7.88;7.03;;;13.70;61.50;;;;;;5072989;28;20190;-38
2022/07/25 06:30:40;;;;;;;9.13;7.60;;;13.70;61.40;;;;;;5072929;28;20798;-37
2022/07/25 06:33:11;;;;;;;8.85;7.95;;;13.70;61.40;;;;;;5069723;28;20215;-38
2022/07/25 06:35:41;;;;;;;8.48;7.63;;;13.70;61.40;;;;;;5072902;28;20214;-38
2022/07/25 06:38:14;;;;;;;8.05;7.25;;;13.80;61.50;;;;;;5072674;28;20229;-38
2022/07/25 06:40:45;;;;;;;8.63;7.78;;;13.70;61.50;;;;;;5072498;28;20195;-38
2022/07/25 06:43:15;;;;;;;8.05;7.10;;;13.70;61.40;;;;;;5092787;28;20225;-39
2022/07/25 06:45:46;;;;;;;7.78;6.97;;;13.70;61.40;;;;;;5092293;28;20199;-48
2022/07/25 06:48:17;;;;;;;7.88;7.18;;;13.70;61.40;;;;;;5093156;28;20194;-38
2022/07/25 06:50:48;;;;;;;7.28;6.57;;;13.70;61.30;;;;;;5086526;28;20194;-42
2022/07/25 06:53:21;;;;;;;7.53;6.78;;;13.70;61.30;;;;;;5072696;28;20282;-39
2022/07/25 06:55:52;;;;;;;7.50;6.80;;;13.80;61.40;;;;;;5072119;28;20225;-38
2022/07/25 06:58:22;;;;;;;6.97;6.28;;;13.70;61.40;;;;;;5071733;28;20706;-38
2022/07/25 07:00:53;;;;;;;7.60;6.80;;;13.80;61.50;;;;;;5072358;28;20194;-38
2022/07/25 07:03:24;;;;;;;7.38;6.68;;;13.80;61.60;;;;;;5072079;28;20223;-38
2022/07/25 07:05:54;;;;;;;7.65;6.93;;;13.80;61.70;;;;;;5072491;28;20654;-39
2022/07/25 07:08:27;;;;;;;6.72;6.13;;;13.80;61.70;;;;;;5072754;28;20194;-38
2022/07/25 07:10:58;;;;;;;7.72;6.95;;;13.80;61.80;;;;;;5072656;28;20191;-39
2022/07/25 07:13:28;;;;;;;7.68;6.88;;;13.80;61.70;;;;;;5072236;28;20690;-38
2022/07/25 07:15:59;;;;;;;7.18;6.47;;;13.80;61.70;;;;;;5071409;28;20194;-43
2022/07/25 07:18:30;;;;;;;7.13;6.43;;;13.80;61.70;;;;;;5072009;28;20230;-40
2022/07/25 07:21:00;;;;;;;7.88;7.07;;;13.80;61.60;;;;;;5072445;28;20201;-39
2022/07/25 07:23:33;;;;;;;7.47;6.53;;;13.80;61.50;;;;;;5072404;28;20682;-38
2022/07/25 07:26:04;;;;;;;7.18;6.53;;;13.80;61.50;;;;;;5072165;28;20206;-39
2022/07/25 07:28:34;;;;;;;8.02;7.22;;;13.80;61.50;;;;;;5071923;28;20198;-41
2022/07/25 07:31:05;;;;;;;7.60;6.95;;;13.80;61.50;;;;;;5072325;28;20197;-38
2022/07/25 07:33:36;;;;;;;7.13;6.50;;;13.80;61.50;;;;;;5071939;28;20215;-38
2022/07/25 07:36:07;;;;;;;7.05;6.43;;;13.80;61.50;;;;;;5071956;28;20286;-37
2022/07/25 07:38:40;;;;;;;7.53;6.72;;;13.70;61.40;;;;;;5071809;28;20320;-38
2022/07/25 07:41:11;;;;;;;7.22;6.50;;;13.70;61.50;;;;;;5071948;28;20190;-38
2022/07/25 07:43:42;;;;;;;7.40;6.72;;;13.70;61.50;;;;;;5072311;28;20280;-38
2022/07/25 07:46:13;;;;;;;7.85;7.10;;;13.70;61.50;;;;;;5072241;28;20726;-38
2022/07/25 07:48:43;;;;;;;6.82;6.22;;;13.70;61.50;;;;;;5072427;28;20206;-38
2022/07/25 07:51:14;;;;;;;7.95;7.15;;;13.70;61.50;;;;;;5071981;28;20203;-38
2022/07/25 07:56:33;;;;;;;7.20;6.50;;;13.80;61.50;;;;;;5071983;28;20229;-42
2022/07/25 07:59:04;;;;;;;7.15;6.45;;;13.80;61.50;;;;;;5071281;28;20230;-38
2022/07/25 08:01:34;;;;;;;6.72;6.13;;;13.70;61.40;;;;;;5071830;28;20199;-38
2022/07/25 08:04:05;;;;;;;7.43;6.68;;;13.70;61.40;;;;;;5071552;28;20231;-38
2022/07/25 08:06:36;;;;;;;7.40;6.70;;;13.70;61.40;;;;;;5071257;28;20650;-38
2022/07/25 08:09:09;;;;;;;7.20;6.50;;;13.70;61.40;;;;;;5071034;28;20217;-38
2022/07/25 08:11:39;;;;;;;6.65;5.97;;;13.70;61.40;;;;;;5071096;28;20199;-38
2022/07/25 08:14:10;;;;;;;6.93;6.30;;;13.70;61.40;;;;;;5070209;28;20193;-38
2022/07/25 08:16:41;;;;;;;6.70;6.00;;;13.70;61.40;;;;;;5070313;28;20191;-38
2022/07/25 08:19:11;;;;;;;6.18;5.57;;;13.70;61.40;;;;;;5070794;28;20222;-47
2022/07/25 08:21:42;;;;;;;6.85;6.25;;;13.70;61.40;;;;;;5070538;28;20227;-38
2022/07/25 08:24:15;;;;;;;7.20;6.50;;;13.70;62.20;;;;;;5070855;28;20201;-38
2022/07/25 08:26:45;;;;;;;6.57;5.97;;;13.70;61.50;;;;;;5071033;28;20563;-38
2022/07/25 08:29:16;;;;;;;6.57;5.95;;;13.70;61.50;;;;;;5071207;28;20198;-38
2022/07/25 08:31:47;;;;;;;6.80;6.13;;;13.70;61.50;;;;;;5071344;28;20237;-38
2022/07/25 08:34:21;;;;;;;6.50;5.90;;;13.70;61.40;;;;;;5071247;28;20190;-38
2022/07/25 08:36:51;;;;;;;6.72;6.13;;;13.70;61.40;;;;;;5070854;28;20290;-38
2022/07/25 08:39:24;;;;;;;6.75;6.15;;;13.70;61.30;;;;;;5070590;28;20230;-39
2022/07/25 08:41:55;;;;;;;6.35;5.72;;;13.70;61.30;;;;;;5070865;28;20218;-38
2022/07/25 08:44:29;;;;;;;6.40;5.90;;;13.70;61.30;;;;;;5070889;28;20684;-38
2022/07/25 08:47:01;;;;;;;6.60;6.00;;;13.70;61.30;;;;;;5070902;28;20194;-38
2022/07/25 08:49:31;;;;;;;6.70;6.03;;;13.70;61.30;;;;;;5071149;28;20198;-38
2022/07/25 08:52:02;;;;;;;6.90;5.75;;;13.70;61.40;;;;;;5070793;28;20229;-43
2022/07/25 08:54:36;;;;;;;6.93;6.22;;;13.70;61.40;;;;;;5070707;28;20575;-38
2022/07/25 08:57:07;;;;;;;6.90;6.30;;;13.70;61.40;;;;;;5070916;28;20207;-44
2022/07/25 08:59:37;;;;;;;6.78;6.18;;;13.70;61.40;;;;;;5071283;28;20226;-38
2022/07/25 09:02:09;;;;;;;6.60;6.00;;;13.70;61.50;;;;;;5070648;28;20588;-38
2022/07/25 09:04:42;;;;;;;6.78;6.07;;;13.70;61.50;;;;;;5070176;28;20225;-38
2022/07/25 09:07:12;;;;;;;6.20;5.70;;;13.70;61.40;;;;;;5070345;28;20662;-44
2022/07/25 09:09:45;;;;;;;6.85;6.25;;;13.70;61.40;;;;;;5070898;28;20534;-39
2022/07/25 09:12:19;;;;;;;5.70;5.20;;;13.70;61.40;;;;;;5074074;28;20222;-41
2022/07/25 09:14:50;;;;;;;7.55;5.50;;;13.70;62.20;;;;;;5073981;28;20237;-48
2022/07/25 09:17:20;;;;;;;6.75;5.18;;;13.80;64.30;;;;;;5074142;28;20217;-38
2022/07/25 09:19:57;;;;;;;5.85;5.22;;;13.80;64.90;;;;;;5093436;28;20224;-40
2022/07/25 09:22:29;;;;;;;7.85;5.78;;;13.90;65.20;;;;;;5077087;28;20775;-38
2022/07/25 09:25:01;;;;;;;6.55;5.75;;;14.00;65.20;;;;;;5074592;28;20210;-38
2022/07/25 09:27:35;;;;;;;6.03;5.35;;;14.00;65.40;;;;;;5074056;28;20202;-38
2022/07/25 09:30:15;;;;;;;6.10;5.47;;;14.00;65.30;;;;;;5074181;28;21356;-38
2022/07/25 09:32:46;;;;;;;7.13;5.80;;;14.00;65.30;;;;;;5074404;28;20230;-38
2022/07/25 09:35:16;;;;;;;5.63;5.00;;;14.00;65.10;;;;;;5074896;28;20213;-38
2022/07/25 09:37:47;;;;;;;6.30;5.63;;;14.00;64.80;;;;;;5074701;28;20206;-39
2022/07/25 09:40:20;;;;;;;6.53;5.65;;;14.00;64.60;;;;;;5074587;28;20213;-38
2022/07/25 09:42:53;;;;;;;7.45;4.90;;;14.00;64.40;;;;;;5069173;28;20223;-38
2022/07/25 09:45:24;;;;;;;6.30;5.55;;;14.00;64.30;;;;;;5071838;28;20210;-52
2022/07/25 09:47:57;;;;;;;5.90;5.30;;;14.00;64.10;;;;;;5073161;28;20206;-43
2022/07/25 09:50:29;;;;;;;6.68;5.80;;;14.00;64.00;;;;;;5060587;28;20218;-58
2022/07/25 09:53:04;;;;;;;6.47;5.85;;;14.00;63.90;;;;;;5073273;28;20717;-55
2022/07/25 09:55:36;;;;;;;6.53;5.47;;;14.00;63.80;;;;;;5072983;28;20209;-48
2022/07/25 09:58:07;;;;;;;6.65;5.78;;;14.00;63.70;;;;;;5073739;28;20202;-53
2022/07/25 10:00:41;;;;;;;5.60;5.03;;;14.00;64.40;;;;;;5072208;28;20670;-58
2022/07/25 10:03:24;;;;;;;6.68;5.60;;;13.90;63.50;;;;;;5065626;28;20230;-55
2022/07/25 10:06:08;;;;;;;6.82;6.13;;;13.90;63.40;;;;;;5093765;28;20578;-56
2022/07/25 10:08:40;;;;;;;6.03;5.43;;;13.90;63.40;;;;;;5094028;28;20206;-58
2022/07/25 10:11:24;;;;;;;6.72;5.18;;;13.90;63.30;;;;;;5100964;28;20213;-51
2022/07/25 10:13:55;;;;;;;5.38;4.85;;;13.90;63.30;;;;;;5121380;27;20227;-42
2022/07/25 10:16:27;;;;;;;6.05;4.88;;;13.90;63.20;;;;;;5096761;27;20205;-47
2022/07/25 10:18:59;;;;;;;6.15;5.50;;;13.90;63.20;;;;;;5093008;28;20229;-50
2022/07/25 10:21:30;;;;;;;6.00;5.40;;;13.90;63.10;;;;;;5092381;28;20630;-53
2022/07/25 10:24:03;;;;;;;6.82;5.60;;;13.90;63.00;;;;;;5105377;28;20558;-49
2022/07/25 10:26:37;;;;;;;7.07;5.63;;;13.90;63.00;;;;;;5113894;28;20274;-50
2022/07/25 10:29:11;;;;;;;7.60;5.47;;;13.90;63.10;;;;;;5113804;28;20202;-50
2022/07/25 10:31:45;;;;;;;5.95;5.35;;;13.90;63.00;;;;;;5113492;28;20552;-54
2022/07/25 10:34:16;;;;;;;6.28;5.68;;;13.90;63.00;;;;;;5112579;28;20190;-51
2022/07/25 10:36:49;;;;;;;6.43;5.72;;;13.90;63.00;;;;;;5095700;28;20201;-58
2022/07/25 10:39:22;;;;;;;5.97;5.32;;;13.90;63.00;;;;;;5090011;28;20263;-58
2022/07/25 10:41:58;;;;;;;6.03;5.40;;;13.80;62.90;;;;;;5093208;28;20301;-57
2022/07/25 10:44:40;;;;;;;6.00;5.32;;;13.90;63.00;;;;;;5092815;28;20243;-51
2022/07/25 10:47:13;;;;;;;6.28;5.45;;;13.90;62.90;;;;;;5093381;28;20605;-52
2022/07/25 10:49:46;;;;;;;6.20;5.60;;;13.90;62.80;;;;;;5093730;28;20197;-37
2022/07/25 10:52:18;;;;;;;6.20;5.60;;;13.90;62.80;;;;;;5092593;28;20617;-40
2022/07/25 10:54:56;;;;;;;6.18;5.47;;;13.90;62.70;;;;;;5092054;28;20187;-38
2022/07/25 10:57:29;;;;;;;6.65;5.22;;;13.90;62.70;;;;;;5092332;28;20202;-44
2022/07/25 11:00:09;;;;;;;7.30;5.45;;;13.90;62.70;;;;;;5093412;28;20222;-59
2022/07/25 11:02:40;;;;;;;6.25;5.65;;;13.90;62.80;;;;;;5092887;28;20213;-48
2022/07/25 11:05:11;;;;;;;6.28;5.45;;;13.90;62.70;;;;;;5091857;28;20190;-54
2022/07/25 11:07:53;;;;;;;5.60;5.03;;;13.90;62.70;;;;;;5092201;28;20194;-47
2022/07/25 11:10:29;;;;;;;6.22;5.63;;;13.80;62.70;;;;;;5088342;28;20274;-54
2022/07/25 11:13:01;;;;;;;5.68;5.13;;;13.80;62.70;;;;;;5092711;28;20218;-43
2022/07/25 11:15:33;;;;;;;5.80;5.20;;;13.80;62.70;;;;;;5093194;28;20572;-50
2022/07/25 11:18:03;;;;;;;5.60;5.03;;;13.80;62.70;;;;;;5071957;28;20191;-37
2022/07/25 11:20:34;;;;;;;6.10;5.05;;;13.80;62.60;;;;;;5072000;28;20618;-37
2022/07/25 11:23:05;;;;;;;5.93;5.13;;;13.80;62.60;;;;;;5071430;28;20227;-38
2022/07/25 11:25:36;;;;;;;5.45;4.55;;;13.80;62.60;;;;;;5071725;28;20195;-37
2022/07/25 11:28:08;;;;;;;6.82;5.28;;;13.80;62.60;;;;;;5071878;28;20199;-40
2022/07/25 11:30:39;;;;;;;5.75;5.20;;;13.90;62.60;;;;;;5070654;28;20202;-38
2022/07/25 11:33:11;;;;;;;6.65;5.32;;;13.90;62.60;;;;;;5052048;28;20215;-42
2022/07/25 11:35:42;;;;;;;5.80;5.20;;;13.90;62.70;;;;;;5071475;28;20241;-38
2022/07/25 11:38:16;;;;;;;5.28;4.78;;;13.80;62.60;;;;;;5066119;28;20188;-37
2022/07/25 11:40:47;;;;;;;6.50;5.13;;;13.80;62.60;;;;;;5091882;28;20221;-43
2022/07/25 11:43:25;;;;;;;5.72;4.60;;;13.80;62.60;;;;;;5092608;28;20693;-37
2022/07/25 11:46:05;;;;;;;5.75;5.07;;;13.90;62.90;;;;;;5092084;28;20201;-43
2022/07/25 11:48:37;;;;;;;5.32;4.82;;;13.80;62.80;;;;;;5090995;28;20193;-44
2022/07/25 11:51:13;;;;;;;6.25;4.32;;;13.90;62.90;;;;;;5084800;28;20195;-43
2022/07/25 11:53:46;;;;;;;5.65;4.82;;;13.90;62.80;;;;;;5070655;28;20211;-58
2022/07/25 11:56:18;;;;;;;5.80;5.20;;;13.80;62.70;;;;;;5070071;28;20205;-43
2022/07/25 11:59:00;;;;;;;5.18;4.53;;;13.90;62.70;;;;;;5070336;28;20194;-49
2022/07/25 12:01:37;;;;;;;6.00;4.85;;;13.90;62.70;;;;;;5070287;28;20210;-46
2022/07/25 12:04:13;;;;;;;6.15;5.18;;;13.90;62.60;;;;;;5069881;28;20252;-44
2022/07/25 12:06:44;;;;;;;4.97;4.15;;;13.90;62.70;;;;;;5069874;28;20593;-38
2022/07/25 12:09:17;;;;;;;5.22;4.38;;;13.80;62.70;;;;;;5070478;28;20229;-49
2022/07/25 12:11:48;;;;;;;4.90;4.50;;;13.80;62.90;;;;;;5069824;28;20662;-45
2022/07/25 12:14:21;;;;;;;4.90;4.40;;;13.80;63.00;;;;;;5069898;28;20209;-47
2022/07/25 12:16:51;;;;;;;4.93;4.43;;;13.80;63.20;;;;;;5069313;28;20191;-39
2022/07/25 12:19:23;;;;;;;4.88;4.30;;;13.80;63.20;;;;;;5070190;28;20233;-37
2022/07/25 12:21:54;;;;;;;6.47;4.13;;;13.80;63.20;;;;;;5070373;28;20229;-41
2022/07/25 12:24:24;;;;;;;6.68;4.07;;;13.80;63.30;;;;;;5070392;28;20199;-46
2022/07/25 12:26:56;;;;;;;6.07;4.43;;;13.80;63.30;;;;;;5069995;28;20199;-41
2022/07/25 12:29:28;;;;;;;5.18;4.38;;;13.80;63.30;;;;;;5069819;28;20721;-38
2022/07/25 12:31:59;;;;;;;5.45;4.28;;;13.80;63.20;;;;;;5069662;28;20221;-39
2022/07/25 12:34:29;;;;;;;4.47;3.90;;;13.90;63.30;;;;;;5070605;28;20198;-37
2022/07/25 12:37:00;;;;;;;5.25;3.92;;;13.80;63.20;;;;;;5070343;28;20282;-38
2022/07/25 12:39:31;;;;;;;4.75;4.05;;;13.90;63.30;;;;;;5070005;28;20226;-38
2022/07/25 12:42:03;;;;;;;5.00;4.35;;;13.90;63.30;;;;;;5069497;28;20215;-40
2022/07/25 12:44:35;;;;;;;4.65;4.07;;;13.80;63.40;;;;;;5069697;28;20210;-41
2022/07/25 12:47:06;;;;;;;4.13;3.72;;;13.90;63.50;;;;;;5069781;28;20191;-46
2022/07/25 12:49:37;;;;;;;4.93;4.05;;;13.80;63.50;;;;;;5070205;28;20198;-42
2022/07/25 12:52:08;;;;;;;4.97;3.65;;;13.80;63.50;;;;;;5069622;28;20226;-43
2022/07/25 12:54:42;;;;;;;4.53;3.63;;;13.80;63.60;;;;;;5069721;28;20190;-44
2022/07/25 12:57:14;;;;;;;6.03;4.30;;;13.80;63.50;;;;;;5069541;28;20195;-37
2022/07/25 12:59:46;;;;;;;5.07;3.72;;;13.90;63.60;;;;;;5069761;28;20218;-37
2022/07/25 13:02:17;;;;;;;4.82;3.67;;;13.90;63.60;;;;;;5070103;28;20215;-38
2022/07/25 13:04:48;;;;;;;4.78;3.72;;;13.90;63.60;;;;;;5069778;28;20668;-37
2022/07/25 13:07:19;;;;;;;5.72;4.03;;;13.90;63.50;;;;;;5069684;28;20252;-37
2022/07/25 13:09:50;;;;;;;5.78;3.75;;;13.90;63.60;;;;;;5069803;28;20205;-42
2022/07/25 13:12:22;;;;;;;6.40;4.03;;;13.90;63.60;;;;;;5069050;28;20209;-38
2022/07/25 13:14:55;;;;;;;5.13;3.58;;;13.90;63.70;;;;;;5069324;28;20198;-47